Terminal Aerodrome Forecast
Issued by NWS Wilmington, OH

Current Version | Previous Version | Graphics & Text | Print | Product List | Glossary On
Versions: 1 2 3 4 5 6 7 8 9 10 11 12 13 14 15 16 17 18 19 20 21 22 23
000
FTUS41 KILN 282300
TAFCVG
TAF
KCVG 282334Z 2900/3006 27009KT P6SM SCT100 BKN200
     FM290800 27007KT P6SM SCT200
     FM291400 28010KT P6SM SCT040
     FM291800 28012G18KT P6SM BKN040=

USA.gov is the U.S. government's official web portal to all federal, state and local government web resources and services.